Time;durP1;ratioP1;P1;durP2;ratioP2;P2;SDS_P1;SDS_P2;PMS_P1;PMS_P2;Temp;Humidity;BMP_temperature;BMP_pressure;BME280_temperature;BME280_humidity;BME280_pressure;Samples;Min_cycle;Max_cycle;Signal;HPM_P1;HPM_P2
2022/08/25 00:02:54;;;;;;;20.87;12.10;;;;;;;18.93;91.63;97861.19;6184897;28;20234;-43
2022/08/25 00:05:59;;;;;;;16.20;12.00;;;;;;;18.93;91.79;97858.53;6205603;28;20240;-43
2022/08/25 00:09:04;;;;;;;19.43;11.97;;;;;;;18.92;91.83;97857.69;6203969;28;20216;-43
2022/08/25 00:12:06;;;;;;;22.13;12.50;;;;;;;18.93;92.06;97850.50;6205879;28;20215;-44
2022/08/25 00:15:09;;;;;;;21.97;12.93;;;;;;;18.93;91.97;97853.19;6205485;28;20252;-44
2022/08/25 00:18:12;;;;;;;23.60;13.07;;;;;;;18.94;92.17;97853.00;6204554;28;20238;-45
2022/08/25 00:21:21;;;;;;;20.83;12.73;;;;;;;18.96;92.28;97847.50;6206713;28;20225;-44
2022/08/25 00:24:24;;;;;;;23.87;12.63;;;;;;;18.99;92.10;97849.81;6204181;28;20262;-43
2022/08/25 00:27:26;;;;;;;22.23;13.17;;;;;;;18.99;92.34;97849.81;6204177;28;20598;-44
2022/08/25 00:30:29;;;;;;;20.60;13.23;;;;;;;19.03;92.16;97848.47;6205840;28;20231;-43
2022/08/25 00:33:31;;;;;;;21.20;12.73;;;;;;;19.07;92.36;97855.13;6189997;28;20229;-43
2022/08/25 00:36:34;;;;;;;21.13;13.70;;;;;;;19.05;91.92;97847.31;6204246;28;20255;-43
2022/08/25 00:39:38;;;;;;;22.60;13.47;;;;;;;19.03;92.14;97846.63;6205050;28;20229;-44
2022/08/25 00:42:40;;;;;;;19.63;12.63;;;;;;;19.05;92.25;97849.97;6205179;28;20258;-45
2022/08/25 00:45:42;;;;;;;19.27;12.97;;;;;;;19.04;92.52;97852.81;6205312;28;20370;-44
2022/08/25 00:48:49;;;;;;;18.30;12.87;;;;;;;19.06;92.42;97851.66;6204305;28;20605;-44
2022/08/25 00:52:06;;;;;;;18.63;12.77;;;;;;;19.06;92.36;97850.81;6194273;28;20629;-43
2022/08/25 00:55:20;;;;;;;17.60;11.63;;;;;;;19.04;92.37;97845.63;6204227;28;20243;-44
2022/08/25 00:58:25;;;;;;;24.23;13.47;;;;;;;19.02;92.71;97841.44;6172007;28;20315;-44
2022/08/25 01:02:06;;;;;;;21.87;12.93;;;;;;;19.01;92.57;97840.63;6204923;28;20263;-44
2022/08/25 01:05:11;;;;;;;24.07;12.90;;;;;;;19.01;92.53;97842.44;6178763;28;20232;-44
2022/08/25 01:08:15;;;;;;;16.90;12.17;;;;;;;19.01;92.68;97837.94;6209916;28;20239;-44
2022/08/25 01:11:17;;;;;;;20.23;13.70;;;;;;;19.03;92.71;97840.44;6209011;28;20230;-44
2022/08/25 01:14:24;;;;;;;20.53;11.93;;;;;;;19.04;92.66;97829.56;6210042;28;20232;-43
2022/08/25 01:17:43;;;;;;;17.77;12.40;;;;;;;19.03;92.85;97830.59;6209081;28;20228;-43
2022/08/25 01:20:52;;;;;;;16.43;11.53;;;;;;;19.03;92.76;97827.91;6182965;28;20376;-45
2022/08/25 01:23:57;;;;;;;16.97;12.27;;;;;;;19.05;92.75;97831.25;6202135;28;20606;-43
2022/08/25 01:27:00;;;;;;;22.13;12.70;;;;;;;19.08;92.62;97830.03;6192325;28;20233;-46
2022/08/25 01:30:03;;;;;;;18.23;11.97;;;;;;;19.06;92.72;97827.56;6174447;28;20233;-44
2022/08/25 01:33:08;;;;;;;24.73;12.43;;;;;;;19.03;92.74;97827.91;6208010;28;20239;-46
2022/08/25 01:36:10;;;;;;;17.37;12.07;;;;;;;19.00;93.09;97822.88;6208742;28;20209;-45
2022/08/25 01:39:14;;;;;;;17.57;11.90;;;;;;;18.98;93.35;97824.06;6208210;28;20235;-44
2022/08/25 01:42:32;;;;;;;18.90;12.30;;;;;;;18.98;93.38;97824.06;6208850;28;20704;-45
2022/08/25 01:45:36;;;;;;;18.77;12.83;;;;;;;18.96;93.48;97821.59;6209247;28;20295;-43
2022/08/25 01:48:39;;;;;;;21.30;12.57;;;;;;;18.94;93.60;97812.06;6208254;28;20241;-44
2022/08/25 01:51:46;;;;;;;13.33;11.40;;;;;;;18.94;93.49;97810.22;6186456;28;20235;-44
2022/08/25 01:54:49;;;;;;;15.67;10.83;;;;;;;18.96;93.62;97816.25;6184725;28;20647;-44
2022/08/25 01:57:51;;;;;;;18.93;11.83;;;;;;;18.99;93.54;97818.53;6205877;28;20256;-43
2022/08/25 02:00:57;;;;;;;14.47;11.33;;;;;;;19.01;93.34;97816.53;6209784;28;20723;-44
2022/08/25 02:03:59;;;;;;;14.53;10.80;;;;;;;19.00;93.35;97824.72;6199292;28;20236;-44
2022/08/25 02:07:06;;;;;;;15.07;10.90;;;;;;;19.01;93.31;97818.38;6208537;28;20610;-45
2022/08/25 02:10:12;;;;;;;18.30;11.60;;;;;;;19.00;93.27;97817.53;6199413;28;20233;-45
2022/08/25 02:13:14;;;;;;;15.40;11.13;;;;;;;18.99;93.28;97815.03;6208063;28;20278;-45
2022/08/25 02:16:23;;;;;;;19.67;12.47;;;;;;;18.96;93.55;97815.41;6208738;28;20615;-44
2022/08/25 02:19:25;;;;;;;19.40;11.73;;;;;;;18.92;93.69;97822.91;6204855;28;20237;-43
2022/08/25 02:22:28;;;;;;;24.13;11.67;;;;;;;18.90;93.69;97819.56;6204318;28;20236;-45
2022/08/25 02:25:31;;;;;;;13.73;10.60;;;;;;;18.92;93.75;97819.41;6207183;28;20239;-43
2022/08/25 02:28:33;;;;;;;14.80;10.77;;;;;;;18.92;93.76;97814.91;6207661;28;20233;-44
2022/08/25 02:31:36;;;;;;;11.47;10.27;;;;;;;18.94;93.73;97817.41;6208170;28;20244;-43
2022/08/25 02:34:40;;;;;;;14.63;11.80;;;;;;;18.93;93.72;97813.91;6207365;28;20236;-44
2022/08/25 02:37:42;;;;;;;14.10;10.97;;;;;;;18.94;93.66;97814.72;6206964;28;20263;-45
2022/08/25 02:40:44;;;;;;;16.77;12.30;;;;;;;18.90;93.78;97814.22;6206781;28;20843;-43
2022/08/25 02:43:47;;;;;;;15.63;11.50;;;;;;;18.89;93.78;97815.22;6207301;28;20315;-45
2022/08/25 02:46:49;;;;;;;18.47;11.37;;;;;;;18.90;93.79;97806.22;6206800;28;20715;-44
2022/08/25 02:49:51;;;;;;;19.93;11.47;;;;;;;18.90;93.78;97805.38;6200678;28;20735;-43
2022/08/25 02:52:54;;;;;;;14.07;10.50;;;;;;;18.91;93.97;97807.03;6198961;28;20235;-44
2022/08/25 02:55:56;;;;;;;16.57;11.23;;;;;;;18.95;93.79;97809.22;6206898;28;20231;-44
2022/08/25 02:58:59;;;;;;;15.73;11.30;;;;;;;18.98;93.80;97806.16;6207243;28;20264;-43
2022/08/25 03:02:02;;;;;;;15.90;11.20;;;;;;;19.00;93.60;97806.00;6207044;28;20626;-43
2022/08/25 03:05:06;;;;;;;12.43;10.53;;;;;;;19.01;93.56;97800.47;6206312;28;20302;-44
2022/08/25 03:08:08;;;;;;;14.50;10.50;;;;;;;19.02;93.66;97809.34;6206074;28;20240;-43
2022/08/25 03:11:11;;;;;;;11.10;9.90;;;;;;;19.03;93.46;97798.47;6206099;28;20235;-44
2022/08/25 03:14:13;;;;;;;11.63;10.43;;;;;;;19.04;93.60;97796.63;6206505;28;20766;-43
2022/08/25 03:17:15;;;;;;;12.00;9.80;;;;;;;19.05;93.41;97803.66;6206221;28;20302;-44
2022/08/25 03:20:18;;;;;;;13.73;10.70;;;;;;;19.06;93.59;97799.97;6196491;28;20271;-44
2022/08/25 03:23:20;;;;;;;12.00;10.50;;;;;;;19.05;93.49;97801.81;6192869;28;21091;-44
2022/08/25 03:29:44;;;;;;;16.47;11.90;;;;;;;18.96;93.77;97800.19;6205894;28;20320;-44
2022/08/25 03:32:46;;;;;;;18.53;12.17;;;;;;;18.91;94.27;97797.19;6206495;28;20256;-43
2022/08/25 03:35:48;;;;;;;15.13;12.00;;;;;;;18.86;94.54;97793.38;6206226;28;20263;-43
2022/08/25 03:38:51;;;;;;;19.77;12.53;;;;;;;18.83;95.15;97793.69;6205483;28;20774;-44
2022/08/25 03:41:54;;;;;;;21.87;12.43;;;;;;;18.77;95.46;97790.69;6205628;28;20735;-46
2022/08/25 03:44:56;;;;;;;19.87;12.10;;;;;;;18.75;95.84;97799.91;6205917;28;20487;-44
2022/08/25 03:47:58;;;;;;;18.00;12.30;;;;;;;18.71;96.19;97795.91;6188671;28;20241;-44
2022/08/25 03:51:00;;;;;;;17.47;12.60;;;;;;;18.70;96.43;97789.72;6183620;28;20327;-44
2022/08/25 03:54:03;;;;;;;16.07;12.87;;;;;;;18.70;96.67;97800.41;6204084;28;20232;-45
2022/08/25 03:57:05;;;;;;;14.47;12.90;;;;;;;18.72;96.73;97793.06;6204045;28;20260;-44
2022/08/25 04:00:10;;;;;;;15.10;12.67;;;;;;;18.76;96.64;97801.59;6205422;28;20294;-45
2022/08/25 04:03:12;;;;;;;17.43;12.43;;;;;;;18.77;96.88;97797.88;6206667;28;20684;-45
2022/08/25 04:06:16;;;;;;;19.53;12.93;;;;;;;18.76;96.84;97801.59;6207953;28;20224;-45
2022/08/25 04:09:18;;;;;;;19.50;12.67;;;;;;;18.76;97.21;97801.59;6205363;28;20208;-44
2022/08/25 04:12:21;;;;;;;14.50;12.33;;;;;;;18.78;96.97;97803.06;6204872;28;20299;-44
2022/08/25 04:15:24;;;;;;;18.73;13.00;;;;;;;18.83;97.01;97804.41;6205239;28;20228;-44
2022/08/25 04:18:30;;;;;;;13.27;11.80;;;;;;;18.88;96.93;97796.69;6204957;28;20225;-44
2022/08/25 04:21:33;;;;;;;13.87;12.40;;;;;;;18.92;96.88;97800.69;6190271;28;20713;-44
2022/08/25 04:24:35;;;;;;;14.00;11.37;;;;;;;18.98;96.73;97792.78;6203119;28;20709;-44
2022/08/25 04:27:38;;;;;;;12.93;10.63;;;;;;;19.04;96.46;97792.13;6204341;28;20306;-46
2022/08/25 04:30:42;;;;;;;12.13;11.03;;;;;;;19.09;96.23;97786.22;6203206;28;20240;-44
2022/08/25 04:33:46;;;;;;;13.87;11.50;;;;;;;19.15;96.23;97789.06;6205527;28;20606;-46
2022/08/25 04:36:49;;;;;;;12.80;11.50;;;;;;;19.20;96.01;97791.22;6203460;28;20818;-46
2022/08/25 04:39:53;;;;;;;15.63;11.10;;;;;;;19.25;95.77;97796.03;6204429;28;20240;-44
2022/08/25 04:42:55;;;;;;;12.60;11.40;;;;;;;19.25;95.58;97786.19;6204379;28;20262;-45
2022/08/25 04:45:58;;;;;;;13.00;11.33;;;;;;;19.29;95.54;97789.31;6203766;28;20703;-45
2022/08/25 04:49:02;;;;;;;13.77;12.40;;;;;;;19.29;95.73;97789.31;6204458;28;20608;-44
2022/08/25 04:52:04;;;;;;;14.30;12.80;;;;;;;19.26;95.26;97797.72;6181844;28;20240;-45
2022/08/25 04:55:13;;;;;;;16.27;12.17;;;;;;;19.22;95.34;97793.72;6204132;28;20235;-45
2022/08/25 04:58:16;;;;;;;15.67;12.63;;;;;;;19.21;95.30;97794.72;6203638;28;20271;-45
2022/08/25 05:01:22;;;;;;;14.97;13.03;;;;;;;19.18;95.30;97795.88;6204091;28;20236;-44
2022/08/25 05:04:24;;;;;;;17.07;14.10;;;;;;;19.13;95.78;97792.91;6204152;28;20232;-45
2022/08/25 05:07:29;;;;;;;21.73;13.93;;;;;;;19.11;95.95;97785.06;6203469;28;20719;-45
2022/08/25 05:10:32;;;;;;;15.60;13.13;;;;;;;19.18;95.63;97788.69;6203778;28;20625;-46
2022/08/25 05:13:35;;;;;;;20.67;13.83;;;;;;;19.17;95.81;97791.53;6204044;28;20501;-44
2022/08/25 05:16:38;;;;;;;21.30;13.70;;;;;;;19.17;95.92;97787.03;6203371;28;20235;-44
2022/08/25 05:19:41;;;;;;;14.80;13.07;;;;;;;19.23;95.76;97787.34;6198737;28;20642;-45
2022/08/25 05:22:45;;;;;;;16.37;13.00;;;;;;;19.28;95.73;97783.13;6179627;28;20237;-44
2022/08/25 05:25:47;;;;;;;15.83;13.03;;;;;;;19.36;95.59;97784.97;6202174;28;20236;-45
2022/08/25 05:28:51;;;;;;;13.80;12.40;;;;;;;19.44;95.27;97782.22;6203364;28;20239;-45
2022/08/25 05:31:53;;;;;;;15.80;13.43;;;;;;;19.52;95.16;97784.88;6203977;28;20294;-44
2022/08/25 05:34:55;;;;;;;21.27;13.53;;;;;;;19.64;94.92;97782.63;6204714;28;20601;-44
2022/08/25 05:37:58;;;;;;;14.87;13.20;;;;;;;19.77;94.44;97789.03;6201828;28;20264;-45
2022/08/25 05:41:06;;;;;;;14.87;11.80;;;;;;;19.87;94.00;97786.13;6204535;28;20314;-46
2022/08/25 05:44:08;;;;;;;14.40;12.90;;;;;;;19.98;93.84;97788.38;6205975;28;20614;-44
2022/08/25 05:47:10;;;;;;;17.67;13.20;;;;;;;20.07;93.71;97784.63;6203654;28;20584;-45
2022/08/25 05:50:12;;;;;;;16.87;13.53;;;;;;;20.15;93.35;97792.63;6197373;28;20279;-46
2022/08/25 05:53:14;;;;;;;16.40;14.70;;;;;;;20.18;93.15;97794.94;6206242;28;20231;-45
2022/08/25 05:56:17;;;;;;;14.03;12.63;;;;;;;20.22;93.33;97787.38;6208653;28;20232;-45
2022/08/25 05:59:19;;;;;;;15.20;13.03;;;;;;;20.26;93.14;97796.72;6207339;28;20232;-45
2022/08/25 06:02:40;;;;;;;14.83;12.50;;;;;;;20.28;92.89;97797.34;6208323;28;20586;-45
2022/08/25 06:05:42;;;;;;;12.90;11.43;;;;;;;20.27;92.96;97793.84;6207847;28;20616;-46
2022/08/25 06:08:44;;;;;;;13.97;11.97;;;;;;;20.26;92.92;97797.53;6207523;28;20707;-46
2022/08/25 06:11:47;;;;;;;13.57;12.27;;;;;;;20.24;92.94;97799.59;6206779;28;20400;-45
2022/08/25 06:14:55;;;;;;;13.03;11.73;;;;;;;20.21;93.02;97802.63;6206772;28;20224;-44
2022/08/25 06:18:00;;;;;;;14.43;12.43;;;;;;;20.20;92.76;97792.91;6206688;28;20237;-44
2022/08/25 06:21:12;;;;;;;13.77;12.37;;;;;;;20.16;92.58;97804.19;6191107;28;20233;-45
2022/08/25 06:24:14;;;;;;;12.03;10.83;;;;;;;20.11;92.48;97799.34;6183768;28;20634;-45
2022/08/25 06:27:17;;;;;;;12.83;11.53;;;;;;;20.13;92.52;97801.84;6200806;28;20220;-44
2022/08/25 06:30:22;;;;;;;13.93;11.93;;;;;;;20.08;92.68;97801.53;6206136;28;20746;-45
2022/08/25 06:33:29;;;;;;;16.07;10.93;;;;;;;20.10;92.57;97797.69;6206339;28;20302;-46
2022/08/25 06:36:32;;;;;;;15.03;13.30;;;;;;;20.10;91.94;97797.69;6205306;28;20235;-47
2022/08/25 06:39:34;;;;;;;13.10;11.43;;;;;;;20.11;91.87;97809.22;6209382;28;20228;-45
2022/08/25 06:42:37;;;;;;;14.43;12.77;;;;;;;20.24;91.89;97806.78;6206057;28;20243;-46
2022/08/25 06:45:42;;;;;;;12.60;11.33;;;;;;;20.38;91.04;97805.16;6204765;28;20700;-46
2022/08/25 06:48:44;;;;;;;13.50;12.07;;;;;;;20.52;90.59;97807.88;6206549;28;20708;-44
2022/08/25 06:51:47;;;;;;;14.50;13.00;;;;;;;20.58;90.47;97809.84;6184605;28;20760;-44
2022/08/25 06:54:49;;;;;;;14.97;13.37;;;;;;;20.61;90.29;97803.28;6202384;28;20741;-44
2022/08/25 06:57:53;;;;;;;17.67;14.20;;;;;;;20.62;90.10;97813.81;6204413;28;20243;-45
2022/08/25 07:01:11;;;;;;;22.50;17.60;;;;;;;20.61;90.04;97812.16;6205039;28;20580;-47
2022/08/25 07:04:21;;;;;;;21.70;15.67;;;;;;;20.61;90.15;97805.97;6205472;28;20366;-48
2022/08/25 07:07:23;;;;;;;19.50;14.93;;;;;;;20.63;90.17;97809.28;6205166;28;20232;-47
2022/08/25 07:10:25;;;;;;;17.97;14.40;;;;;;;20.68;89.78;97811.41;6204639;28;20709;-46
2022/08/25 07:13:27;;;;;;;24.10;15.67;;;;;;;20.70;89.14;97812.06;6203394;28;20308;-47
2022/08/25 07:16:31;;;;;;;22.03;16.10;;;;;;;20.73;89.18;97814.38;6205621;28;20225;-46
2022/08/25 07:19:35;;;;;;;27.53;19.27;;;;;;;20.83;89.08;97823.00;6200904;28;20376;-45
2022/08/25 07:22:39;;;;;;;31.47;18.80;;;;;;;20.96;88.32;97821.31;6203036;28;20711;-46
2022/08/25 07:25:41;;;;;;;27.23;17.80;;;;;;;20.96;87.79;97824.00;6205320;28;20243;-45
2022/08/25 07:28:43;;;;;;;23.70;17.77;;;;;;;20.99;87.44;97829.00;6204393;28;20240;-45
2022/08/25 07:31:48;;;;;;;25.70;19.80;;;;;;;21.00;87.58;97827.16;6205807;28;20232;-46
2022/08/25 07:38:13;;;;;;;26.63;18.57;;;;;;;21.15;86.64;97830.69;6204374;28;20229;-45
2022/08/25 07:41:21;;;;;;;27.93;19.63;;;;;;;21.14;86.84;97833.56;6205699;28;20229;-46
2022/08/25 07:44:24;;;;;;;25.73;17.70;;;;;;;21.07;87.15;97832.59;6204389;28;20299;-48
2022/08/25 07:47:28;;;;;;;30.30;19.57;;;;;;;20.93;87.55;97832.44;6205042;28;20241;-48
2022/08/25 07:50:32;;;;;;;22.77;17.60;;;;;;;20.82;87.68;97834.75;6181519;28;20240;-46
2022/08/25 07:53:34;;;;;;;27.90;18.30;;;;;;;20.78;87.67;97838.78;6199667;28;20232;-48
2022/08/25 07:56:40;;;;;;;26.37;18.40;;;;;;;20.80;87.60;97840.28;6204318;28;20236;-45
2022/08/25 07:59:42;;;;;;;30.40;17.83;;;;;;;20.81;87.62;97836.59;6203934;28;20356;-49
2022/08/25 08:02:46;;;;;;;30.70;19.07;;;;;;;20.87;87.36;97833.16;6205357;28;20224;-50
2022/08/25 08:05:50;;;;;;;29.47;17.97;;;;;;;20.97;87.26;97838.25;6203777;28;20241;-47
2022/08/25 08:08:53;;;;;;;23.53;17.63;;;;;;;21.11;86.27;97834.75;6204583;28;20986;-46
2022/08/25 08:11:59;;;;;;;25.17;16.70;;;;;;;21.34;86.08;97835.50;6202539;28;20749;-45
2022/08/25 08:15:03;;;;;;;28.07;17.47;;;;;;;21.49;84.85;97834.63;6204963;28;20247;-47
2022/08/25 08:18:11;;;;;;;33.43;19.40;;;;;;;21.57;84.23;97847.97;6202552;28;20737;-45
2022/08/25 08:21:34;;;;;;;29.53;18.37;;;;;;;21.58;83.46;97845.09;6186279;28;20232;-47
2022/08/25 08:24:38;;;;;;;30.77;19.13;;;;;;;21.55;83.99;97852.72;6201984;28;20232;-45
2022/08/25 08:27:55;;;;;;;25.83;17.73;;;;;;;21.53;83.64;97852.91;6202978;28;20242;-45
2022/08/25 08:30:58;;;;;;;22.93;17.07;;;;;;;21.61;83.98;97843.88;6204072;28;20240;-47
2022/08/25 08:34:02;;;;;;;29.53;18.07;;;;;;;21.87;82.20;97846.88;6203189;28;20321;-47
2022/08/25 08:37:04;;;;;;;39.33;19.27;;;;;;;21.97;81.45;97844.69;6201850;28;20232;-47
2022/08/25 08:40:14;;;;;;;30.33;18.43;;;;;;;21.90;81.06;97848.34;6203036;28;20228;-46
2022/08/25 08:43:18;;;;;;;25.33;18.50;;;;;;;22.04;81.45;97836.75;6203532;28;20229;-48
2022/08/25 08:46:22;;;;;;;25.67;16.33;;;;;;;22.40;79.53;97845.56;6203121;28;20723;-47
2022/08/25 08:49:39;;;;;;;21.10;15.63;;;;;;;22.88;78.71;97842.22;6200236;28;20237;-50
2022/08/25 08:53:12;;;;;;;24.43;16.40;;;;;;;23.12;76.48;97834.53;6155909;28;21000;-46
2022/08/25 08:56:21;;;;;;;23.70;15.77;;;;;;;23.05;76.85;97844.44;6171290;28;20228;-47
2022/08/25 08:59:37;;;;;;;20.00;13.73;;;;;;;23.02;77.20;97835.91;6202817;28;20338;-47
2022/08/25 09:02:51;;;;;;;21.27;14.60;;;;;;;22.73;77.71;97845.84;6202033;28;20224;-46
2022/08/25 09:05:57;;;;;;;23.77;14.60;;;;;;;22.37;79.03;97847.78;6201115;28;20236;-46
2022/08/25 09:09:03;;;;;;;19.57;14.30;;;;;;;22.34;78.88;97842.81;6203346;28;20232;-47
2022/08/25 09:12:26;;;;;;;17.87;12.60;;;;;;;22.84;77.84;97828.34;6202139;28;20216;-50
2022/08/25 09:16:53;;;;;;;21.73;13.20;;;;;;;23.63;74.76;97834.16;6203351;28;20216;-45
2022/08/25 09:19:10;;;;;;;16.20;12.97;;;;;;;23.90;72.63;97829.69;6203380;28;20715;-45
2022/08/25 09:22:46;;;;;;;17.10;11.93;;;;;;;23.94;72.37;97824.72;6192896;28;20232;-49
2022/08/25 09:26:11;;;;;;;18.90;11.53;;;;;;;23.87;72.43;97827.38;6207859;28;20255;-47
2022/08/25 09:29:22;;;;;;;17.50;12.30;;;;;;;23.81;71.81;97814.72;6207911;28;20239;-45
2022/08/25 09:32:31;;;;;;;22.23;12.10;;;;;;;24.42;70.33;97809.25;6206396;28;20260;-44
2022/08/25 09:35:38;;;;;;;19.17;12.63;;;;;;;25.22;67.83;97811.63;6199443;28;20739;-47
2022/08/25 09:38:40;;;;;;;18.55;11.30;;;;;;;25.53;65.79;97807.38;6189291;28;20240;-50
2022/08/25 09:41:55;;;;;;;14.05;11.38;;;;;;;25.42;65.02;97806.16;6207785;28;20704;-50
2022/08/25 09:44:57;;;;;;;15.60;10.23;;;;;;;25.36;64.98;97799.72;6207863;28;20370;-48
2022/08/25 09:48:02;;;;;;;18.95;11.30;;;;;;;25.65;65.27;97794.88;6182955;28;20255;-46
2022/08/25 09:51:31;;;;;;;16.40;11.25;;;;;;;26.27;63.70;97785.94;6192626;28;20680;-48
2022/08/25 09:54:43;;;;;;;15.45;10.82;;;;;;;26.85;61.29;97774.81;6206895;28;20623;-47
2022/08/25 09:57:55;;;;;;;12.52;9.98;;;;;;;27.38;60.57;97774.22;6206730;28;20239;-46
2022/08/25 10:01:15;;;;;;;13.00;9.55;;;;;;;27.45;58.02;97778.50;6207929;28;20560;-47
2022/08/25 10:04:36;;;;;;;15.45;9.63;;;;;;;27.57;57.33;97769.63;6207750;28;20746;-49
2022/08/25 10:07:49;;;;;;;18.55;13.45;;;;;;;28.37;56.14;97773.66;6206094;28;20240;-47
2022/08/25 10:10:56;;;;;;;18.30;11.23;;;;;;;28.41;54.57;97769.44;6206127;28;20581;-48
2022/08/25 10:14:15;;;;;;;12.63;9.45;;;;;;;27.94;55.66;97770.38;6208278;28;20228;-47
2022/08/25 10:17:25;;;;;;;11.23;8.52;;;;;;;28.10;54.17;97764.28;6206602;28;20379;-47
2022/08/25 10:20:30;;;;;;;14.07;9.43;;;;;;;27.38;55.64;97768.81;6205112;28;20264;-47
2022/08/25 10:23:45;;;;;;;11.73;8.18;;;;;;;27.48;55.79;97759.06;6206323;28;20813;-45
2022/08/25 10:26:57;;;;;;;13.88;9.10;;;;;;;27.55;56.55;97753.63;6207696;28;20232;-48
2022/08/25 10:29:59;;;;;;;14.10;8.75;;;;;;;27.98;55.61;97755.28;6206717;28;20722;-46
2022/08/25 10:33:14;;;;;;;12.13;8.45;;;;;;;28.36;54.24;97753.00;6204551;28;20282;-50
2022/08/25 10:36:27;;;;;;;12.60;7.97;;;;;;;28.91;53.08;97747.25;6206158;28;20550;-49
2022/08/25 10:39:38;;;;;;;12.23;8.80;;;;;;;28.82;53.10;97745.97;6206455;28;20614;-49
2022/08/25 10:42:56;;;;;;;11.43;8.18;;;;;;;28.62;53.60;97743.59;6206833;28;20612;-49
2022/08/25 10:46:28;;;;;;;14.80;9.55;;;;;;;28.30;55.86;97742.28;6206898;28;20303;-48
2022/08/25 10:49:54;;;;;;;11.45;8.35;;;;;;;28.36;53.71;97734.00;6201852;28;20240;-49
2022/08/25 10:53:19;;;;;;;14.20;8.23;;;;;;;28.43;53.28;97740.16;6201979;28;20237;-47
2022/08/25 10:56:28;;;;;;;12.32;7.45;;;;;;;28.54;53.21;97739.34;6205650;28;20735;-45
2022/08/25 11:00:02;;;;;;;12.60;8.73;;;;;;;28.90;49.61;97740.16;6205407;28;20792;-51
2022/08/25 11:03:43;;;;;;;16.05;8.75;;;;;;;28.42;52.49;97741.22;6180023;28;20319;-50
2022/08/25 11:06:55;;;;;;;11.75;9.13;;;;;;;27.97;53.62;97735.44;6205250;28;20221;-47
2022/08/25 11:10:05;;;;;;;12.95;8.32;;;;;;;27.83;54.06;97725.88;6205486;28;20255;-50
2022/08/25 11:13:35;;;;;;;12.65;7.90;;;;;;;28.12;54.25;97721.44;6204983;28;20727;-45
2022/08/25 11:16:37;;;;;;;12.80;8.00;;;;;;;28.77;52.55;97721.38;6204464;28;20237;-46
2022/08/25 11:19:47;;;;;;;10.88;8.07;;;;;;;28.88;51.72;97723.28;6200282;28;20284;-45
2022/08/25 11:23:22;;;;;;;15.25;8.68;;;;;;;28.35;51.16;97720.69;6192942;28;20229;-45
2022/08/25 11:26:33;;;;;;;9.65;7.55;;;;;;;28.11;52.59;97709.78;6205526;28;20614;-46
2022/08/25 11:29:40;;;;;;;10.57;8.23;;;;;;;28.16;54.40;97707.16;6204617;28;20599;-44
2022/08/25 11:32:50;;;;;;;10.10;7.35;;;;;;;28.05;55.61;97705.25;6202964;28;20236;-47
2022/08/25 11:35:57;;;;;;;12.52;7.97;;;;;;;28.20;55.72;97697.53;6203338;28;20228;-46
2022/08/25 11:39:11;;;;;;;12.30;8.00;;;;;;;28.39;55.10;97695.53;6204542;28;20452;-44
2022/08/25 11:42:32;;;;;;;10.07;7.65;;;;;;;28.70;54.52;97696.22;6180904;28;20218;-45
2022/08/25 11:45:46;;;;;;;12.50;7.68;;;;;;;29.84;51.83;97687.13;6205373;28;20236;-46
2022/08/25 11:49:36;;;;;;;13.88;7.97;;;;;;;29.83;48.23;97680.03;6204504;28;20232;-46
2022/08/25 11:52:45;;;;;;;13.85;8.10;;;;;;;29.72;47.35;97689.09;6161093;28;20238;-46
2022/08/25 11:55:54;;;;;;;11.18;7.50;;;;;;;30.07;47.38;97688.91;6203518;28;20228;-47
2022/08/25 11:58:57;;;;;;;12.70;7.57;;;;;;;29.79;48.80;97688.94;6155157;28;20229;-44
2022/08/25 12:02:00;;;;;;;11.65;7.40;;;;;;;29.36;51.03;97693.84;6199185;28;20256;-46
2022/08/25 12:05:26;;;;;;;14.48;8.30;;;;;;;28.69;51.13;97691.84;6204289;28;20704;-44
2022/08/25 12:09:03;;;;;;;10.85;7.15;;;;;;;27.87;55.10;97698.03;6203987;28;20232;-46
2022/08/25 12:12:29;;;;;;;9.77;7.00;;;;;;;28.10;55.06;97678.25;6223935;28;20242;-47
2022/08/25 12:15:40;;;;;;;12.07;7.30;;;;;;;28.47;54.56;97686.19;6206363;28;20363;-46
2022/08/25 12:18:44;;;;;;;13.30;7.68;;;;;;;29.25;51.24;97681.09;6223635;28;20359;-44
2022/08/25 12:21:53;;;;;;;12.35;8.00;;;;;;;29.73;46.31;97672.53;6218013;28;20319;-46
2022/08/25 12:25:20;;;;;;;10.25;7.13;;;;;;;30.02;45.89;97673.31;6224562;28;20325;-45
2022/08/25 12:28:32;;;;;;;11.00;6.82;;;;;;;30.25;45.62;97675.03;6225051;28;20375;-45
2022/08/25 12:32:01;;;;;;;9.95;6.85;;;;;;;29.72;48.15;97676.31;6223994;28;20335;-45
2022/08/25 12:35:12;;;;;;;9.45;7.05;;;;;;;29.45;47.50;97666.31;6224745;28;20227;-45
2022/08/25 12:38:25;;;;;;;13.18;7.35;;;;;;;29.88;47.87;97662.97;6224148;28;20366;-46
2022/08/25 12:41:30;;;;;;;9.20;6.93;;;;;;;29.88;45.66;97663.78;6224606;28;20232;-47
2022/08/25 12:44:46;;;;;;;12.85;7.15;;;;;;;29.41;46.27;97660.50;6222888;28;20346;-46
2022/08/25 12:47:52;;;;;;;10.50;6.80;;;;;;;29.77;44.95;97658.41;6205155;28;20232;-47
2022/08/25 12:50:58;;;;;;;7.57;6.38;;;;;;;30.01;46.30;97663.50;6189056;28;20716;-45
2022/08/25 12:54:12;;;;;;;9.20;6.63;;;;;;;30.27;47.29;97662.00;6203064;28;20314;-46
2022/08/25 12:57:31;;;;;;;7.32;6.32;;;;;;;29.65;45.73;97659.31;6203743;28;20225;-46
2022/08/25 13:01:04;;;;;;;7.22;6.20;;;;;;;29.48;47.98;97661.19;6208670;28;20312;-45
2022/08/25 13:04:25;;;;;;;7.00;6.28;;;;;;;28.88;48.71;97652.63;6207983;28;20240;-49
2022/08/25 13:08:01;;;;;;;12.48;6.50;;;;;;;28.88;47.65;97649.91;6207372;28;20240;-46
2022/08/25 13:11:12;;;;;;;8.65;6.25;;;;;;;29.29;48.02;97652.38;6208849;28;20247;-48
2022/08/25 13:14:25;;;;;;;6.47;5.68;;;;;;;29.35;49.30;97642.41;6206985;28;20231;-46
2022/08/25 13:17:34;;;;;;;6.80;6.10;;;;;;;29.25;50.35;97648.47;6208161;28;20239;-46
2022/08/25 13:20:40;;;;;;;11.35;5.78;;;;;;;29.41;49.38;97646.91;6184517;28;20380;-45
2022/08/25 13:23:48;;;;;;;7.32;5.38;;;;;;;30.24;47.25;97646.16;6173100;28;20275;-48
2022/08/25 13:26:54;;;;;;;9.73;6.43;;;;;;;31.34;45.01;97639.72;6195879;28;20236;-45
2022/08/25 13:29:58;;;;;;;9.32;5.35;;;;;;;32.61;41.67;97633.41;6207724;28;20696;-46
2022/08/25 13:33:15;;;;;;;8.32;5.10;;;;;;;33.72;36.28;97635.72;6181788;28;20693;-49
2022/08/25 13:40:20;;;;;;;9.00;5.47;;;;;;;35.34;33.45;97620.06;6207798;28;20233;-47
2022/08/25 13:43:27;;;;;;;6.88;5.20;;;;;;;36.05;31.55;97622.28;6207485;28;20643;-48
2022/08/25 13:46:31;;;;;;;7.20;4.88;;;;;;;37.31;29.46;97620.91;6207459;28;21074;-48
2022/08/25 13:49:38;;;;;;;9.68;5.25;;;;;;;38.67;28.31;97611.50;6203764;28;20613;-48
2022/08/25 13:52:45;;;;;;;7.13;5.05;;;;;;;39.79;26.56;97611.84;6207390;28;20236;-46
2022/08/25 13:55:52;;;;;;;10.23;5.72;;;;;;;39.33;26.22;97606.56;6207406;28;20251;-46
2022/08/25 13:59:01;;;;;;;7.35;5.32;;;;;;;39.05;27.04;97603.00;6207371;28;20243;-45
2022/08/25 14:02:07;;;;;;;8.95;6.00;;;;;;;38.95;27.21;97603.22;6207221;28;20228;-46
2022/08/25 14:05:34;;;;;;;13.43;6.00;;;;;;;36.25;29.41;97600.13;6208361;28;20302;-45
2022/08/25 14:08:40;;;;;;;7.93;5.43;;;;;;;36.57;30.04;97597.59;6206380;28;20233;-45
2022/08/25 14:11:48;;;;;;;7.18;5.35;;;;;;;37.87;28.09;97598.03;6204983;28;20716;-47
2022/08/25 14:15:01;;;;;;;10.73;5.85;;;;;;;35.67;31.58;97594.56;6207367;28;20232;-48
2022/08/25 14:18:13;;;;;;;8.75;5.30;;;;;;;33.92;35.46;97602.06;6206699;28;20302;-45
2022/08/25 14:21:19;;;;;;;9.07;5.15;;;;;;;32.81;37.33;97590.88;6194348;28;20249;-45
2022/08/25 14:24:22;;;;;;;8.82;5.65;;;;;;;32.45;38.50;97587.94;6205735;28;20247;-47
2022/08/25 14:27:25;;;;;;;9.52;5.47;;;;;;;32.42;40.80;97590.41;6205364;28;20235;-47
2022/08/25 14:30:28;;;;;;;6.78;5.32;;;;;;;34.91;34.85;97585.97;6205960;28;20224;-45
2022/08/25 14:33:40;;;;;;;7.53;4.93;;;;;;;34.59;35.31;97594.56;6205555;28;20228;-45
2022/08/25 14:36:43;;;;;;;8.90;5.70;;;;;;;32.71;39.28;97591.66;6206852;28;20314;-45
2022/08/25 14:39:45;;;;;;;5.93;4.70;;;;;;;31.84;42.36;97589.47;6206304;28;20232;-45
2022/08/25 14:42:49;;;;;;;7.00;4.72;;;;;;;32.65;39.69;97589.94;6206494;28;20262;-46